createdAt,value
2019-03-19T00:00:06.648Z,3.37
2019-03-19T00:02:38.799Z,3.20
2019-03-19T00:05:07.656Z,4.13
2019-03-19T00:07:36.848Z,3.67
2019-03-19T00:10:06.811Z,3.27
2019-03-19T00:12:36.156Z,2.80
2019-03-19T00:15:05.320Z,3.10
2019-03-19T00:17:34.091Z,3.33
2019-03-19T00:20:03.246Z,3.77
2019-03-19T00:22:32.305Z,3.43
2019-03-19T00:25:01.094Z,3.40
2019-03-19T00:27:30.098Z,3.43
2019-03-19T00:29:58.891Z,2.67
2019-03-19T00:32:27.927Z,2.90
2019-03-19T00:34:57.087Z,3.57
2019-03-19T00:37:26.095Z,3.60
2019-03-19T00:39:54.855Z,3.20
2019-03-19T00:42:23.635Z,3.40
2019-03-19T00:44:52.471Z,3.30
2019-03-19T00:47:21.575Z,3.10
2019-03-19T00:49:50.648Z,3.67
2019-03-19T00:52:19.425Z,3.13
2019-03-19T00:54:48.198Z,3.40
2019-03-19T00:57:17.263Z,3.33
2019-03-19T00:59:46.146Z,4.27
2019-03-19T01:02:15.181Z,3.57
2019-03-19T01:04:43.954Z,2.90
2019-03-19T01:07:12.719Z,3.00
2019-03-19T01:09:41.811Z,3.57
2019-03-19T01:12:11.100Z,3.67
2019-03-19T01:14:40.214Z,3.27
2019-03-19T01:17:09.030Z,3.80
2019-03-19T01:19:38.693Z,3.20
2019-03-19T01:22:08.111Z,3.70
2019-03-19T01:24:37.148Z,3.57
2019-03-19T01:27:06.600Z,3.90
2019-03-19T01:29:35.381Z,3.27
2019-03-19T01:32:04.148Z,4.20
2019-03-19T01:34:33.276Z,3.30
2019-03-19T01:37:02.457Z,3.40
2019-03-19T01:39:31.223Z,4.10
2019-03-19T01:41:59.993Z,3.80
2019-03-19T01:44:28.809Z,3.43
2019-03-19T01:46:57.588Z,4.27
2019-03-19T01:49:26.376Z,3.10
2019-03-19T01:51:55.148Z,3.97
2019-03-19T01:54:23.922Z,3.37
2019-03-19T01:56:52.699Z,3.80
2019-03-19T01:59:21.454Z,3.53
2019-03-19T02:01:50.218Z,4.30
2019-03-19T02:04:19.268Z,4.30
2019-03-19T02:06:48.047Z,2.83
2019-03-19T02:09:16.840Z,4.40
2019-03-19T02:11:45.594Z,3.77
2019-03-19T02:14:14.682Z,4.30
2019-03-19T02:16:43.760Z,3.50
2019-03-19T02:19:12.539Z,3.73
2019-03-19T02:21:41.298Z,3.70
2019-03-19T02:24:10.339Z,3.87
2019-03-19T02:26:39.450Z,3.40
2019-03-19T02:29:10.697Z,3.83
2019-03-19T02:31:38.707Z,3.47
2019-03-19T02:34:07.800Z,3.77
2019-03-19T02:36:36.896Z,3.67
2019-03-19T02:39:07.311Z,3.60
2019-03-19T02:41:36.081Z,3.83
2019-03-19T02:44:05.156Z,3.40
2019-03-19T02:46:33.950Z,3.40
2019-03-19T02:49:02.981Z,3.47
2019-03-19T02:51:31.755Z,3.03
2019-03-19T02:54:00.523Z,4.23
2019-03-19T02:56:33.153Z,3.70
2019-03-19T02:59:00.650Z,3.30
2019-03-19T03:01:29.491Z,3.57
2019-03-19T03:03:58.521Z,4.43
2019-03-19T03:06:27.628Z,3.20
2019-03-19T03:08:56.412Z,3.33
2019-03-19T03:11:25.537Z,3.50
2019-03-19T03:13:54.907Z,3.00
2019-03-19T03:16:23.775Z,3.27
2019-03-19T03:18:52.548Z,3.63
2019-03-19T03:21:21.343Z,3.47
2019-03-19T03:23:50.088Z,3.43
2019-03-19T03:26:18.863Z,3.77
2019-03-19T03:28:47.711Z,3.50
2019-03-19T03:31:16.613Z,3.40
2019-03-19T03:33:45.453Z,3.80
2019-03-19T03:36:14.381Z,3.33
2019-03-19T03:38:43.135Z,3.63
2019-03-19T03:41:12.210Z,3.60
2019-03-19T03:43:41.395Z,3.70
2019-03-19T03:46:10.274Z,3.20
2019-03-19T03:48:39.105Z,4.03
2019-03-19T03:51:08.583Z,4.17
2019-03-19T03:53:37.434Z,4.00
2019-03-19T03:56:06.625Z,3.97
2019-03-19T03:58:35.415Z,4.37
2019-03-19T04:01:04.535Z,3.83
2019-03-19T04:03:33.847Z,3.43
2019-03-19T04:06:02.957Z,4.07
2019-03-19T04:08:31.825Z,3.50
2019-03-19T04:11:00.987Z,3.80
2019-03-19T04:13:29.774Z,4.13
2019-03-19T04:15:58.836Z,4.03
2019-03-19T04:18:27.607Z,4.03
2019-03-19T04:20:56.404Z,3.90
2019-03-19T04:23:25.589Z,4.00
2019-03-19T04:25:54.506Z,3.20
2019-03-19T04:28:23.263Z,4.37
2019-03-19T04:30:52.316Z,3.70
2019-03-19T04:33:21.210Z,4.70
2019-03-19T04:35:50.350Z,3.83
2019-03-19T04:38:19.121Z,4.47
2019-03-19T04:40:49.629Z,3.47
2019-03-19T04:43:19.164Z,3.50
2019-03-19T04:45:47.939Z,4.33
2019-03-19T04:48:16.728Z,4.17
2019-03-19T04:50:45.515Z,4.20
2019-03-19T04:53:14.286Z,3.67
2019-03-19T04:55:43.634Z,4.27
2019-03-19T04:58:12.496Z,4.40
2019-03-19T05:00:41.354Z,4.27
2019-03-19T05:03:10.387Z,3.90
2019-03-19T05:05:39.222Z,4.67
2019-03-19T05:08:08.304Z,4.93
2019-03-19T05:10:37.064Z,5.43
2019-03-19T05:13:06.257Z,4.43
2019-03-19T05:15:35.006Z,4.93
2019-03-19T05:18:04.181Z,4.70
2019-03-19T05:20:32.940Z,4.70
2019-03-19T05:23:01.991Z,4.60
2019-03-19T05:25:30.780Z,4.60
2019-03-19T05:27:59.560Z,4.20
2019-03-19T05:30:28.325Z,5.07
2019-03-19T05:32:57.375Z,4.20
2019-03-19T05:35:26.469Z,4.40
2019-03-19T05:37:55.542Z,4.20
2019-03-19T05:40:24.328Z,4.10
2019-03-19T05:42:53.773Z,4.40
2019-03-19T05:45:22.561Z,4.97
2019-03-19T05:47:51.365Z,4.60
2019-03-19T05:50:20.194Z,4.57
2019-03-19T05:52:49.027Z,5.57
2019-03-19T05:55:17.833Z,4.87
2019-03-19T05:57:49.912Z,4.80
2019-03-19T06:00:17.881Z,4.47
2019-03-19T06:02:46.805Z,4.43
2019-03-19T06:05:16.024Z,4.30
2019-03-19T06:07:44.839Z,5.27
2019-03-19T06:10:13.695Z,3.83
2019-03-19T06:12:42.654Z,6.20
2019-03-19T06:15:11.603Z,5.30
2019-03-19T06:17:40.467Z,4.47
2019-03-19T06:20:10.349Z,4.30
2019-03-19T06:22:39.146Z,5.37
2019-03-19T06:25:08.939Z,4.20
2019-03-19T06:27:38.465Z,5.23
2019-03-19T06:30:10.244Z,6.17
2019-03-19T06:32:39.022Z,4.70
2019-03-19T06:35:08.887Z,4.23
2019-03-19T06:37:37.681Z,4.03
2019-03-19T06:40:07.568Z,4.37
2019-03-19T06:42:36.356Z,4.53
2019-03-19T06:45:05.580Z,3.73
2019-03-19T06:47:34.674Z,4.27
2019-03-19T06:50:03.753Z,4.07
2019-03-19T06:52:33.474Z,4.40
2019-03-19T06:55:02.520Z,4.70
2019-03-19T06:57:38.896Z,4.50
2019-03-19T07:00:02.169Z,3.63
2019-03-19T07:02:31.167Z,4.93
2019-03-19T07:04:59.948Z,4.67
2019-03-19T07:07:29.034Z,4.47
2019-03-19T07:09:57.812Z,4.53
2019-03-19T07:12:26.928Z,4.33
2019-03-19T07:14:55.766Z,5.07
2019-03-19T07:17:25.171Z,4.00
2019-03-19T07:19:54.352Z,4.97
2019-03-19T07:22:23.122Z,4.73
2019-03-19T07:24:51.892Z,4.93
2019-03-19T07:27:21.053Z,5.00
2019-03-19T07:29:49.823Z,3.97
2019-03-19T07:32:18.601Z,3.87
2019-03-19T07:34:47.595Z,4.17
2019-03-19T07:37:16.779Z,4.73
2019-03-19T07:39:46.134Z,4.30
2019-03-19T07:42:14.949Z,4.87
2019-03-19T07:44:44.451Z,4.13
2019-03-19T07:47:13.312Z,4.47
2019-03-19T07:49:42.456Z,7.73
2019-03-19T07:52:11.512Z,4.57
2019-03-19T07:54:41.090Z,4.97
2019-03-19T07:57:09.878Z,5.33
2019-03-19T07:59:38.713Z,4.30
2019-03-19T08:02:07.909Z,3.93
2019-03-19T08:04:36.692Z,3.93
2019-03-19T08:07:05.814Z,4.10
2019-03-19T08:09:35.777Z,3.83
2019-03-19T08:12:05.295Z,3.63
2019-03-19T08:14:34.089Z,3.83
2019-03-19T08:17:03.144Z,3.77
2019-03-19T08:19:32.025Z,3.80
2019-03-19T08:22:00.794Z,3.83
2019-03-19T08:24:30.119Z,3.70
2019-03-19T08:26:58.942Z,3.60
2019-03-19T08:29:28.038Z,4.17
2019-03-19T08:31:57.451Z,3.33
2019-03-19T08:34:26.234Z,3.90
2019-03-19T08:36:55.015Z,3.73
2019-03-19T08:39:24.077Z,3.47
2019-03-19T08:41:52.847Z,3.90
2019-03-19T08:44:27.643Z,3.60
2019-03-19T08:46:52.143Z,3.03
2019-03-19T08:49:22.391Z,3.17
2019-03-19T08:51:51.363Z,3.63
2019-03-19T08:54:20.136Z,3.10
2019-03-19T08:56:48.919Z,2.97
2019-03-19T08:59:18.310Z,3.27
2019-03-19T09:01:47.435Z,3.43
2019-03-19T09:04:16.240Z,3.83
2019-03-19T09:06:45.028Z,3.67
2019-03-19T09:09:14.482Z,3.57
2019-03-19T09:11:43.562Z,2.63
2019-03-19T09:14:12.336Z,3.40
2019-03-19T09:16:41.479Z,3.73
2019-03-19T09:19:10.325Z,2.93
2019-03-19T09:21:39.113Z,3.00
2019-03-19T09:24:08.232Z,3.50
2019-03-19T09:26:37.325Z,3.23
2019-03-19T09:29:16.092Z,3.33
2019-03-19T09:31:36.609Z,3.27
2019-03-19T09:34:05.395Z,3.30
2019-03-19T09:36:34.521Z,3.33
2019-03-19T09:39:05.477Z,2.87
2019-03-19T09:41:34.240Z,3.03
2019-03-19T09:44:03.345Z,3.40
2019-03-19T09:46:32.286Z,2.87
2019-03-19T09:49:01.452Z,2.63
2019-03-19T09:51:30.347Z,2.87
2019-03-19T09:53:59.256Z,2.67
2019-03-19T09:56:28.052Z,2.83
2019-03-19T09:58:56.923Z,2.70
2019-03-19T10:01:26.099Z,3.23
2019-03-19T10:03:55.136Z,2.73
2019-03-19T10:06:24.186Z,2.90
2019-03-19T10:08:53.373Z,2.93
2019-03-19T10:11:22.641Z,3.20
2019-03-19T10:13:51.778Z,3.20
2019-03-19T10:16:20.862Z,2.97
2019-03-19T10:18:50.180Z,2.60
2019-03-19T10:21:19.914Z,2.50
2019-03-19T10:23:49.088Z,2.60
2019-03-19T10:26:18.148Z,2.40
2019-03-19T10:28:47.904Z,2.83
2019-03-19T10:31:17.287Z,2.23
2019-03-19T10:33:46.574Z,2.60
2019-03-19T10:36:15.340Z,2.43
2019-03-19T10:38:44.991Z,2.80
2019-03-19T10:41:13.770Z,2.73
2019-03-19T10:43:42.819Z,2.17
2019-03-19T10:46:11.888Z,2.40
2019-03-19T10:48:40.663Z,2.93
2019-03-19T10:51:09.513Z,2.60
2019-03-19T10:53:38.642Z,2.43
2019-03-19T10:56:07.788Z,2.77
2019-03-19T10:58:37.205Z,2.63
2019-03-19T11:01:06.255Z,2.17
2019-03-19T11:03:35.266Z,2.40
2019-03-19T11:06:04.142Z,2.47
2019-03-19T11:08:33.456Z,2.10
2019-03-19T11:11:03.600Z,2.37
2019-03-19T11:13:33.137Z,2.80
2019-03-19T11:16:02.016Z,2.30
2019-03-19T11:18:31.418Z,2.13
2019-03-19T11:21:00.513Z,2.70
2019-03-19T11:23:29.817Z,2.33
2019-03-19T11:25:59.125Z,2.40
2019-03-19T11:28:28.415Z,2.30
2019-03-19T11:30:57.525Z,2.20
2019-03-19T11:33:26.700Z,2.23
2019-03-19T11:35:55.589Z,2.07
2019-03-19T11:38:24.377Z,2.20
2019-03-19T11:40:53.162Z,2.23
2019-03-19T11:43:22.582Z,2.60
2019-03-19T11:45:51.448Z,2.40
2019-03-19T11:48:20.479Z,2.60
2019-03-19T11:50:49.840Z,2.33
2019-03-19T11:53:18.623Z,2.60
2019-03-19T11:55:47.423Z,2.27
2019-03-19T11:58:16.506Z,2.50
2019-03-19T12:00:47.953Z,2.10
2019-03-19T12:03:16.983Z,2.20
2019-03-19T12:05:45.859Z,2.20
2019-03-19T12:08:15.042Z,2.90
2019-03-19T12:10:44.305Z,2.33
2019-03-19T12:13:13.152Z,2.63
2019-03-19T12:15:42.254Z,2.17
2019-03-19T12:18:11.455Z,2.03
2019-03-19T12:20:40.843Z,2.10
2019-03-19T12:23:10.262Z,2.00
2019-03-19T12:25:39.464Z,2.23
2019-03-19T12:28:08.643Z,2.37
2019-03-19T12:30:37.728Z,1.80
2019-03-19T12:33:06.503Z,1.70
2019-03-19T12:35:35.268Z,2.30
2019-03-19T12:38:04.083Z,2.10
2019-03-19T12:40:37.370Z,2.57
2019-03-19T12:43:03.884Z,2.50
2019-03-19T12:45:32.647Z,2.03
2019-03-19T12:48:01.429Z,1.83
2019-03-19T12:50:30.211Z,1.87
2019-03-19T12:52:59.005Z,2.30
2019-03-19T12:55:28.094Z,2.07
2019-03-19T12:57:57.459Z,2.20
2019-03-19T13:00:34.161Z,1.87
2019-03-19T13:02:57.509Z,2.53
2019-03-19T13:05:26.603Z,1.70
2019-03-19T13:07:55.726Z,1.60
2019-03-19T13:10:24.996Z,2.50
2019-03-19T13:12:53.957Z,1.90
2019-03-19T13:15:23.205Z,2.20
2019-03-19T13:17:51.980Z,2.30
2019-03-19T13:20:20.785Z,1.63
2019-03-19T13:22:50.277Z,2.60
2019-03-19T13:25:19.476Z,2.00
2019-03-19T13:27:48.543Z,2.10
2019-03-19T13:30:18.609Z,2.10
2019-03-19T13:32:48.293Z,2.00
2019-03-19T13:35:17.561Z,2.00
2019-03-19T13:37:46.433Z,2.53
2019-03-19T13:40:16.292Z,2.13
2019-03-19T13:42:45.348Z,2.37
2019-03-19T13:45:15.597Z,2.33
2019-03-19T13:47:45.009Z,2.03
2019-03-19T13:50:15.040Z,2.40
2019-03-19T13:52:43.922Z,1.93
2019-03-19T13:55:13.945Z,2.20
2019-03-19T13:57:42.842Z,2.60
2019-03-19T14:00:13.391Z,2.10
2019-03-19T14:02:42.966Z,2.20
2019-03-19T14:05:12.021Z,2.10
2019-03-19T14:07:40.926Z,2.30
2019-03-19T14:10:10.300Z,2.23
2019-03-19T14:12:39.342Z,2.20
2019-03-19T14:15:10.215Z,2.87
2019-03-19T14:17:38.994Z,2.60
2019-03-19T14:20:09.861Z,1.90
2019-03-19T14:22:38.891Z,2.13
2019-03-19T14:25:08.147Z,2.17
2019-03-19T14:27:37.293Z,2.20
2019-03-19T14:30:07.801Z,2.77
2019-03-19T14:32:36.918Z,2.40
2019-03-19T14:35:06.150Z,2.00
2019-03-19T14:37:35.637Z,2.50
2019-03-19T14:40:05.670Z,2.23
2019-03-19T14:42:34.509Z,2.50
2019-03-19T14:45:03.351Z,2.20
2019-03-19T14:47:32.813Z,2.00
2019-03-19T14:50:01.608Z,1.83
2019-03-19T14:52:30.400Z,2.13
2019-03-19T14:54:59.549Z,1.87
2019-03-19T14:57:28.406Z,2.10
2019-03-19T14:59:57.188Z,2.40
2019-03-19T15:02:26.394Z,1.93
2019-03-19T15:04:55.464Z,2.60
2019-03-19T15:07:24.233Z,2.00
2019-03-19T15:09:53.417Z,2.03
2019-03-19T15:12:22.552Z,1.80
2019-03-19T15:14:51.312Z,1.80
2019-03-19T15:17:20.128Z,2.10
2019-03-19T15:19:48.932Z,2.07
2019-03-19T15:22:17.700Z,2.27
2019-03-19T15:24:46.464Z,2.60
2019-03-19T15:27:16.110Z,2.27
2019-03-19T15:29:45.289Z,2.20
2019-03-19T15:32:14.080Z,2.47
2019-03-19T15:34:42.831Z,1.97
2019-03-19T15:37:11.962Z,2.23
2019-03-19T15:39:41.090Z,2.20
2019-03-19T15:42:09.871Z,1.83
2019-03-19T15:44:38.947Z,3.47
2019-03-19T15:47:07.829Z,2.17
2019-03-19T15:49:38.373Z,1.80
2019-03-19T15:52:07.767Z,2.70
2019-03-19T15:54:36.948Z,3.17
2019-03-19T15:57:06.368Z,2.37
2019-03-19T15:59:35.168Z,2.93
2019-03-19T16:02:04.128Z,3.10
2019-03-19T16:04:33.533Z,2.00
2019-03-19T16:07:02.326Z,1.83
2019-03-19T16:09:31.102Z,2.13
2019-03-19T16:12:00.172Z,2.20
2019-03-19T16:14:28.931Z,2.00
2019-03-19T16:16:57.738Z,2.60
2019-03-19T16:19:27.096Z,2.80
2019-03-19T16:21:56.193Z,2.13
2019-03-19T16:24:25.531Z,2.30
2019-03-19T16:26:56.440Z,2.03
2019-03-19T16:29:25.870Z,2.20
2019-03-19T16:31:55.035Z,2.20
2019-03-19T16:34:24.528Z,2.30
2019-03-19T16:36:53.616Z,2.13
2019-03-19T16:39:23.303Z,2.03
2019-03-19T16:41:52.855Z,2.00
2019-03-19T16:44:22.052Z,2.23
2019-03-19T16:46:51.200Z,2.03
2019-03-19T16:49:20.266Z,2.10
2019-03-19T16:51:49.059Z,2.13
2019-03-19T16:54:18.219Z,2.00
2019-03-19T16:56:47.302Z,2.43
2019-03-19T16:59:16.387Z,1.70
2019-03-19T17:01:45.622Z,1.40
2019-03-19T17:04:14.707Z,2.70
2019-03-19T17:06:43.751Z,3.10
2019-03-19T17:09:12.899Z,3.03
2019-03-19T17:11:41.759Z,1.97
2019-03-19T17:14:10.956Z,2.10
2019-03-19T17:16:39.751Z,2.03
2019-03-19T17:19:09.443Z,2.20
2019-03-19T17:21:38.877Z,2.30
2019-03-19T17:24:08.397Z,2.47
2019-03-19T17:26:37.771Z,2.80
2019-03-19T17:29:06.557Z,2.03
2019-03-19T17:31:35.673Z,3.00
2019-03-19T17:34:04.779Z,3.10
2019-03-19T17:36:34.152Z,17.00
2019-03-19T17:39:03.341Z,16.77
2019-03-19T17:41:32.198Z,4.00
2019-03-19T17:44:01.787Z,7.13
2019-03-19T17:46:30.571Z,3.00
2019-03-19T17:48:59.707Z,2.03
2019-03-19T17:51:28.498Z,2.87
2019-03-19T17:53:57.331Z,2.70
2019-03-19T17:56:26.095Z,2.67
2019-03-19T17:58:55.143Z,2.80
2019-03-19T18:01:23.928Z,2.90
2019-03-19T18:03:52.728Z,2.70
2019-03-19T18:06:21.755Z,2.37
2019-03-19T18:08:50.847Z,2.10
2019-03-19T18:11:19.966Z,2.97
2019-03-19T18:13:49.053Z,2.40
2019-03-19T18:16:18.166Z,2.90
2019-03-19T18:18:47.207Z,2.30
2019-03-19T18:21:16.536Z,2.03
2019-03-19T18:23:45.636Z,2.00
2019-03-19T18:26:14.416Z,2.07
2019-03-19T18:28:43.293Z,2.03
2019-03-19T18:31:12.830Z,2.30
2019-03-19T18:33:41.875Z,2.33
2019-03-19T18:36:10.910Z,3.23
2019-03-19T18:38:39.737Z,2.17
2019-03-19T18:41:08.894Z,2.73
2019-03-19T18:43:37.685Z,2.70
2019-03-19T18:46:06.437Z,2.17
2019-03-19T18:48:35.295Z,2.80
2019-03-19T18:51:04.045Z,3.23
2019-03-19T18:53:32.803Z,2.70
2019-03-19T18:56:01.608Z,2.83
2019-03-19T18:58:30.743Z,2.40
2019-03-19T19:00:59.503Z,2.90
2019-03-19T19:03:28.309Z,2.40
2019-03-19T19:05:57.489Z,3.53
2019-03-19T19:08:26.245Z,3.90
2019-03-19T19:10:55.540Z,3.40
2019-03-19T19:13:24.971Z,2.80
2019-03-19T19:15:54.084Z,3.00
2019-03-19T19:18:23.105Z,3.50
2019-03-19T19:20:51.984Z,5.27
2019-03-19T19:23:20.763Z,3.90
2019-03-19T19:25:49.568Z,21.90
2019-03-19T19:28:18.357Z,18.27
2019-03-19T19:30:47.861Z,18.53
2019-03-19T19:33:16.621Z,6.80
2019-03-19T19:35:45.427Z,2.43
2019-03-19T19:38:14.498Z,2.60
2019-03-19T19:40:43.543Z,2.50
2019-03-19T19:43:12.620Z,2.60
2019-03-19T19:45:41.683Z,2.63
2019-03-19T19:48:10.456Z,2.43
2019-03-19T19:50:39.233Z,3.40
2019-03-19T19:53:08.015Z,3.50
2019-03-19T19:55:36.803Z,4.10
2019-03-19T19:58:05.608Z,4.53
2019-03-19T20:00:34.595Z,3.50
2019-03-19T20:03:11.886Z,4.53
2019-03-19T20:05:34.292Z,4.77
2019-03-19T20:08:03.140Z,3.63
2019-03-19T20:10:31.934Z,3.30
2019-03-19T20:13:00.996Z,3.47
2019-03-19T20:15:29.794Z,3.13
2019-03-19T20:17:58.582Z,3.20
2019-03-19T20:20:27.464Z,3.73
2019-03-19T20:22:56.219Z,3.83
2019-03-19T20:25:25.370Z,3.97
2019-03-19T20:27:54.562Z,3.17
2019-03-19T20:30:23.495Z,2.40
2019-03-19T20:32:52.320Z,2.60
2019-03-19T20:35:21.151Z,2.47
2019-03-19T20:37:51.497Z,3.33
2019-03-19T20:40:20.461Z,3.80
2019-03-19T20:42:49.359Z,2.87
2019-03-19T20:45:18.163Z,3.00
2019-03-19T20:47:47.226Z,2.63
2019-03-19T20:50:21.557Z,3.57
2019-03-19T20:52:50.763Z,4.03
2019-03-19T20:55:19.538Z,3.67
2019-03-19T20:57:48.629Z,3.20
2019-03-19T21:00:17.817Z,3.27
2019-03-19T21:02:46.761Z,3.50
2019-03-19T21:05:16.043Z,3.20
2019-03-19T21:07:45.296Z,3.37
2019-03-19T21:10:18.507Z,3.10
2019-03-19T21:12:47.945Z,2.70
2019-03-19T21:15:18.573Z,3.60
2019-03-19T21:17:48.051Z,2.93
2019-03-19T21:20:16.961Z,2.93
2019-03-19T21:22:45.801Z,3.03
2019-03-19T21:25:14.767Z,3.10
2019-03-19T21:27:43.862Z,3.10
2019-03-19T21:30:13.030Z,3.10
2019-03-19T21:32:42.100Z,3.00
2019-03-19T21:35:11.406Z,2.70
2019-03-19T21:37:40.369Z,2.30
2019-03-19T21:40:10.999Z,2.70
2019-03-19T21:42:39.837Z,2.70
2019-03-19T21:45:10.000Z,2.63
2019-03-19T21:47:39.082Z,2.40
2019-03-19T21:50:10.043Z,3.00
2019-03-19T21:52:39.164Z,2.67
2019-03-19T21:55:08.206Z,2.87
2019-03-19T21:57:37.072Z,3.53
2019-03-19T22:00:07.686Z,2.50
2019-03-19T22:02:36.463Z,3.00
2019-03-19T22:05:06.098Z,2.87
2019-03-19T22:07:34.977Z,3.40
2019-03-19T22:10:04.654Z,2.67
2019-03-19T22:12:33.469Z,3.20
2019-03-19T22:15:02.321Z,2.60
2019-03-19T22:17:31.464Z,3.30
2019-03-19T22:20:00.336Z,2.73
2019-03-19T22:22:29.207Z,2.90
2019-03-19T22:24:58.009Z,3.00
2019-03-19T22:27:26.831Z,3.43
2019-03-19T22:29:55.684Z,2.73
2019-03-19T22:32:24.464Z,3.13
2019-03-19T22:34:53.573Z,2.80
2019-03-19T22:37:22.802Z,2.47
2019-03-19T22:39:51.583Z,2.53
2019-03-19T22:42:20.393Z,2.50
2019-03-19T22:44:49.493Z,2.83
2019-03-19T22:47:18.295Z,2.70
2019-03-19T22:49:47.144Z,2.30
2019-03-19T22:52:16.506Z,2.47
2019-03-19T22:54:45.337Z,2.53
2019-03-19T22:57:14.409Z,2.67
2019-03-19T22:59:43.171Z,2.80
2019-03-19T23:02:12.116Z,2.70
2019-03-19T23:04:40.966Z,2.80
2019-03-19T23:07:09.862Z,2.80
2019-03-19T23:09:38.716Z,2.40
2019-03-19T23:12:08.057Z,3.37
2019-03-19T23:14:36.904Z,2.93
2019-03-19T23:17:05.718Z,3.10
2019-03-19T23:19:34.924Z,2.90
2019-03-19T23:22:03.999Z,2.70
2019-03-19T23:24:33.064Z,2.60
2019-03-19T23:27:02.214Z,3.00
2019-03-19T23:29:31.137Z,3.30
2019-03-19T23:32:00.218Z,3.13
2019-03-19T23:34:38.225Z,3.07
2019-03-19T23:36:59.548Z,3.13
2019-03-19T23:39:28.607Z,2.60
2019-03-19T23:41:57.737Z,3.17
2019-03-19T23:44:26.485Z,2.70
2019-03-19T23:46:57.585Z,3.23
2019-03-19T23:49:26.076Z,3.13
2019-03-19T23:51:54.870Z,2.57
2019-03-19T23:54:23.717Z,2.73
2019-03-19T23:56:52.567Z,3.10
2019-03-19T23:59:21.326Z,2.97
